Millersport, OH (43046)

8:22 AM EDT on June 21, 2018 (GMT -0400)
Cliff St | | Change Station

Elev 922 ft 39.85 °N, 82.60 °W | Updated 15 seconds ago

Mostly Cloudy
Mostly Cloudy
66.7 °F
Feels Like 66.7 °F
N
2
Wind Variable Wind from East
Gusts 2.2 mph

Today
High -- | Low -- °F
--% Chance of Precip.
Yesterday
High -- | Low -- °F
Precip. -- in
Pressure 29.86 in
Visibility 9.0 miles
Clouds Mostly Cloudy 900 ft
Overcast 4100 ft
Dew Point 65 °F
Humidity 94%
Rainfall 0.00 in
Snow Depth Not available.
6:01 AM 9:02 PM
First Quarter, 61% visible
SPECI KVTA 211209Z AUTO 08006KT 9SM BKN009 OVC041 20/17 A2986 RMK AO2 T02000172
Pressure 29.86 in
Visibility 9.0 miles
Clouds Mostly Cloudy 900 ft
Overcast 4100 ft
Dew Point 65 °F
Humidity 94%
Rainfall 0.00 in
Snow Depth Not available.
6:01 AM 9:02 PM
First Quarter, 61% visible
SPECI KVTA 211209Z AUTO 08006KT 9SM BKN009 OVC041 20/17 A2986 RMK AO2 T02000172

Get Severe Weather Alerts

Thanks for signing up!

Be on the lookout for a verification email in your inbox.

You'll start receiving the daily forecast at 6 AM.

×

10-Day Weather Forecast

Almanac

Astronomy

Jun. 21, 2018 Rise Set
Actual Time
Civil Twilight
Nautical Twilight
Astronomical Twilight
Moon
Length of Visible Light
Length of Day
Tomorrow will be .
, % of the Moon is Illuminated

Today's Extremes

State Highs State Lows

Community

WunderPhotos

Category 6

Welcome to Category 6. This is the collective home for Weather Underground's featured writeups by Dr. Jeff Masters (right), Bob Henson (left), Chris Burt, and other regular contributors.

Nearby

Air Quality

  Air Quality AQ Index Pollutant
Not available.

Snow Depth

Station Depth Elevation

Earthquake Activity

City Distance Mag. Time & Date
Minimum magnitude displayed is 2.5.

Coastal Water Temperatures

Place Temperature

Stations

Nearby Weather Stations

Station Location Temp. Windchill Dew Point Humidity Wind Precip. Elev Updated Type
                   

Watches & Warnings

There are currently no watches in effect.